createdAt,value
2017-12-26T00:01:49.168Z,98217.64
2017-12-26T00:04:16.633Z,98215.64
2017-12-26T00:06:44.099Z,98219.17
2017-12-26T00:09:11.849Z,98212.93
2017-12-26T00:11:39.309Z,98207.25
2017-12-26T00:14:06.778Z,98203.79
2017-12-26T00:16:34.549Z,98201.89
2017-12-26T00:19:02.006Z,98199.52
2017-12-26T00:21:29.469Z,98200.23
2017-12-26T00:23:57.223Z,98201.09
2017-12-26T00:26:24.691Z,98200.25
2017-12-26T00:28:52.154Z,98198.95
2017-12-26T00:31:20.217Z,98201.42
2017-12-26T00:33:47.680Z,98201.69
2017-12-26T00:36:16.137Z,98196.16
2017-12-26T00:38:44.451Z,98198.98
2017-12-26T00:41:11.917Z,98197.81
2017-12-26T00:43:39.381Z,98202.96
2017-12-26T00:46:07.443Z,98201.81
2017-12-26T00:48:34.921Z,98203.72
2017-12-26T00:51:02.381Z,98199.25
2017-12-26T00:53:30.123Z,98195.66
2017-12-26T00:55:57.587Z,98200.06
2017-12-26T00:58:25.049Z,98193.86
2017-12-26T01:00:52.809Z,98186.34
2017-12-26T01:03:20.262Z,98192.23
2017-12-26T01:05:47.721Z,98195.39
2017-12-26T01:08:15.500Z,98189.73
2017-12-26T01:10:42.961Z,98193.17
2017-12-26T01:13:10.413Z,98192.15
2017-12-26T01:15:38.182Z,98183.05
2017-12-26T01:18:05.648Z,98178.78
2017-12-26T01:20:33.115Z,98174.96
2017-12-26T01:23:00.851Z,98172.41
2017-12-26T01:25:28.308Z,98160.21
2017-12-26T01:27:55.766Z,98162.13
2017-12-26T01:30:23.558Z,98158.84
2017-12-26T01:32:51.012Z,98164.47
2017-12-26T01:35:18.477Z,98167.28
2017-12-26T01:37:48.401Z,98161.98
2017-12-26T01:40:15.865Z,98163.97
2017-12-26T01:42:43.324Z,98165.73
2017-12-26T01:45:11.397Z,98157.11
2017-12-26T01:47:38.862Z,98157.64
2017-12-26T01:50:06.322Z,98161.82
2017-12-26T01:52:34.699Z,98157.86
2017-12-26T01:55:02.160Z,98150.02
2017-12-26T01:57:29.634Z,98136.55
2017-12-26T01:59:57.389Z,98142.48
2017-12-26T02:02:26.227Z,98132.20
2017-12-26T02:04:53.689Z,98127.70
2017-12-26T02:07:21.456Z,98122.63
2017-12-26T02:09:48.914Z,98124.44
2017-12-26T02:12:16.378Z,98124.44
2017-12-26T02:14:44.296Z,98131.50
2017-12-26T02:17:11.777Z,98121.42
2017-12-26T02:19:39.250Z,98120.00
2017-12-26T02:22:06.981Z,98115.33
2017-12-26T02:24:34.450Z,98107.29
2017-12-26T02:27:01.923Z,98107.81
2017-12-26T02:29:29.981Z,98103.20
2017-12-26T02:31:57.434Z,98106.53
2017-12-26T02:34:24.896Z,98098.66
2017-12-26T02:36:52.637Z,98102.30
2017-12-26T02:39:20.640Z,98091.19
2017-12-26T02:41:48.129Z,98091.89
2017-12-26T02:44:15.980Z,98094.34
2017-12-26T02:46:43.442Z,98094.97
2017-12-26T02:49:10.914Z,98088.59
2017-12-26T02:51:38.898Z,98091.05
2017-12-26T02:54:06.378Z,98093.59
2017-12-26T02:56:33.858Z,98086.63
2017-12-26T02:59:02.260Z,98085.38
2017-12-26T03:01:29.727Z,98081.31
2017-12-26T03:03:57.193Z,98081.09
2017-12-26T03:06:24.874Z,98085.10
2017-12-26T03:08:52.332Z,98073.69
2017-12-26T03:11:19.789Z,98068.23
2017-12-26T03:13:47.632Z,98070.63
2017-12-26T03:16:15.097Z,98064.00
2017-12-26T03:18:42.557Z,98062.11
2017-12-26T03:21:10.317Z,98054.59
2017-12-26T03:23:37.789Z,98051.95
2017-12-26T03:26:05.253Z,98062.33
2017-12-26T03:28:33.000Z,98047.00
2017-12-26T03:31:00.467Z,98052.70
2017-12-26T03:33:27.936Z,98050.14
2017-12-26T03:35:55.693Z,98046.77
2017-12-26T03:38:23.150Z,98049.05
2017-12-26T03:40:50.991Z,98042.31
2017-12-26T03:43:18.997Z,98041.81
2017-12-26T03:45:46.459Z,98038.52
2017-12-26T03:48:13.917Z,98032.22
2017-12-26T03:50:41.673Z,98026.89
2017-12-26T03:53:09.148Z,98026.44
2017-12-26T03:55:36.609Z,98019.38
2017-12-26T03:58:04.358Z,98020.30
2017-12-26T04:00:31.825Z,98012.18
2017-12-26T04:02:59.285Z,98019.52
2017-12-26T04:05:27.362Z,98020.66
2017-12-26T04:07:54.812Z,98020.45
2017-12-26T04:10:22.270Z,98022.44
2017-12-26T04:12:50.344Z,98028.80
2017-12-26T04:15:17.814Z,98019.73
2017-12-26T04:17:45.273Z,98023.52
2017-12-26T04:20:13.349Z,98018.03
2017-12-26T04:22:40.804Z,98017.95
2017-12-26T04:25:08.257Z,98026.91
2017-12-26T04:27:36.041Z,98011.61
2017-12-26T04:30:03.512Z,98014.86
2017-12-26T04:32:30.965Z,98015.30
2017-12-26T04:34:58.729Z,98007.11
2017-12-26T04:37:26.192Z,98010.26
2017-12-26T04:39:53.653Z,98011.18
2017-12-26T04:42:21.714Z,98000.91
2017-12-26T04:44:49.173Z,98006.66
2017-12-26T04:47:16.637Z,98004.87
2017-12-26T04:49:44.402Z,97993.27
2017-12-26T04:52:11.878Z,97996.98
2017-12-26T04:54:39.334Z,97996.16
2017-12-26T04:57:07.392Z,97999.55
2017-12-26T04:59:34.844Z,97999.00
2017-12-26T05:02:02.318Z,97995.19
2017-12-26T05:04:30.093Z,97990.05
2017-12-26T05:06:57.548Z,97982.98
2017-12-26T05:09:25.012Z,97985.73
2017-12-26T05:11:52.776Z,97981.54
2017-12-26T05:14:20.236Z,97986.91
2017-12-26T05:16:47.702Z,97972.91
2017-12-26T05:19:15.541Z,97983.43
2017-12-26T05:21:43.005Z,97987.88
2017-12-26T05:24:10.472Z,97993.87
2017-12-26T05:26:38.806Z,97985.50
2017-12-26T05:29:06.265Z,97990.03
2017-12-26T05:31:33.723Z,97982.65
2017-12-26T05:34:01.449Z,97979.09
2017-12-26T05:36:28.913Z,97980.02
2017-12-26T05:38:56.381Z,97978.77
2017-12-26T05:41:25.033Z,97980.55
2017-12-26T05:43:52.506Z,97981.36
2017-12-26T05:46:19.961Z,97988.73
2017-12-26T05:48:47.738Z,97985.00
2017-12-26T05:51:15.193Z,97976.73
2017-12-26T05:53:42.654Z,97974.92
2017-12-26T05:56:10.452Z,97975.09
2017-12-26T05:58:37.913Z,97970.48
2017-12-26T06:01:05.375Z,97966.59
2017-12-26T06:03:33.073Z,97958.36
2017-12-26T06:06:00.545Z,97958.92
2017-12-26T06:08:28.117Z,97959.37
2017-12-26T06:10:56.053Z,97959.55
2017-12-26T06:13:23.516Z,97959.83
2017-12-26T06:15:50.981Z,97961.05
2017-12-26T06:18:18.792Z,97968.53
2017-12-26T06:20:46.250Z,97957.73
2017-12-26T06:23:13.716Z,97958.97
2017-12-26T06:25:41.514Z,97947.86
2017-12-26T06:28:08.996Z,97956.71
2017-12-26T06:30:36.462Z,97961.88
2017-12-26T06:33:04.166Z,97950.82
2017-12-26T06:35:31.636Z,97950.09
2017-12-26T06:37:59.099Z,97951.41
2017-12-26T06:40:27.121Z,97945.89
2017-12-26T06:42:54.581Z,97951.30
2017-12-26T06:45:22.458Z,97954.97
2017-12-26T06:47:50.453Z,97945.97
2017-12-26T06:50:17.917Z,97952.48
2017-12-26T06:52:45.382Z,97945.50
2017-12-26T06:55:13.159Z,97947.45
2017-12-26T06:57:40.623Z,97946.40
2017-12-26T07:00:08.097Z,97949.30
2017-12-26T07:02:36.153Z,97945.56
2017-12-26T07:05:03.613Z,97943.50
2017-12-26T07:07:31.080Z,97955.21
2017-12-26T07:09:58.841Z,97945.23
2017-12-26T07:12:26.380Z,97940.31
2017-12-26T07:14:53.836Z,97943.41
2017-12-26T07:17:21.828Z,97943.20
2017-12-26T07:19:49.292Z,97949.11
2017-12-26T07:22:23.206Z,97949.88
2017-12-26T07:24:50.670Z,97947.84
2017-12-26T07:27:18.145Z,97939.86
2017-12-26T07:29:46.198Z,97935.16
2017-12-26T07:32:13.662Z,97936.91
2017-12-26T07:34:41.137Z,97944.95
2017-12-26T07:37:09.196Z,97935.37
2017-12-26T07:39:36.678Z,97938.02
2017-12-26T07:42:04.144Z,97936.58
2017-12-26T07:44:31.857Z,97938.16
2017-12-26T07:47:00.037Z,97936.81
2017-12-26T07:49:27.498Z,97932.02
2017-12-26T07:51:55.168Z,97941.91
2017-12-26T07:54:22.682Z,97932.06
2017-12-26T07:56:50.144Z,97942.81
2017-12-26T07:59:18.173Z,97931.48
2017-12-26T08:01:45.633Z,97924.53
2017-12-26T08:04:13.092Z,97932.79
2017-12-26T08:06:40.806Z,97930.92
2017-12-26T08:09:08.260Z,97925.22
2017-12-26T08:11:35.727Z,97924.47
2017-12-26T08:14:03.917Z,97922.40
2017-12-26T08:16:31.391Z,97920.63
2017-12-26T08:18:58.853Z,97913.05
2017-12-26T08:21:26.859Z,97908.22
2017-12-26T08:23:54.319Z,97914.35
2017-12-26T08:26:21.800Z,97916.84
2017-12-26T08:28:49.540Z,97923.20
2017-12-26T08:31:17.013Z,97917.66
2017-12-26T08:33:44.478Z,97918.30
2017-12-26T08:36:12.531Z,97908.41
2017-12-26T08:38:39.995Z,97906.84
2017-12-26T08:41:07.454Z,97908.63
2017-12-26T08:43:35.220Z,97905.55
2017-12-26T08:46:02.681Z,97910.45
2017-12-26T08:48:30.520Z,97903.66
2017-12-26T08:50:58.389Z,97906.17
2017-12-26T08:53:25.853Z,97894.89
2017-12-26T08:55:53.316Z,97900.98
2017-12-26T08:58:21.215Z,97894.39
2017-12-26T09:00:48.678Z,97901.44
2017-12-26T09:03:16.143Z,97896.45
2017-12-26T09:05:43.895Z,97895.48
2017-12-26T09:08:11.345Z,97892.30
2017-12-26T09:10:38.814Z,97886.11
2017-12-26T09:13:06.882Z,97883.66
2017-12-26T09:15:34.336Z,97887.58
2017-12-26T09:18:01.811Z,97875.00
2017-12-26T09:20:30.190Z,97868.59
2017-12-26T09:22:57.653Z,97855.88
2017-12-26T09:25:25.106Z,97860.38
2017-12-26T09:27:52.873Z,97856.16
2017-12-26T09:30:20.328Z,97854.33
2017-12-26T09:32:47.789Z,97856.91
2017-12-26T09:35:15.566Z,97857.78
2017-12-26T09:37:43.033Z,97861.53
2017-12-26T09:40:10.488Z,97870.31
2017-12-26T09:42:38.255Z,97879.53
2017-12-26T09:45:05.758Z,97870.30
2017-12-26T09:47:33.215Z,97871.08
2017-12-26T09:50:01.866Z,97862.53
2017-12-26T09:52:29.326Z,97866.05
2017-12-26T09:54:56.785Z,97870.80
2017-12-26T09:57:24.499Z,97877.53
2017-12-26T09:59:51.965Z,97871.22
2017-12-26T10:02:19.421Z,97865.44
2017-12-26T10:04:47.227Z,97859.80
2017-12-26T10:07:14.693Z,97856.88
2017-12-26T10:09:42.159Z,97849.24
2017-12-26T10:12:09.777Z,97845.92
2017-12-26T10:14:37.233Z,97853.64
2017-12-26T10:17:04.685Z,97847.28
2017-12-26T10:19:32.398Z,97838.25
2017-12-26T10:21:59.856Z,97834.85
2017-12-26T10:24:27.320Z,97832.12
2017-12-26T10:26:55.298Z,97836.17
2017-12-26T10:29:22.762Z,97823.05
2017-12-26T10:31:50.227Z,97813.56
2017-12-26T10:34:17.983Z,97818.12
2017-12-26T10:36:45.462Z,97814.83
2017-12-26T10:39:12.925Z,97812.11
2017-12-26T10:41:40.679Z,97799.57
2017-12-26T10:44:08.147Z,97797.11
2017-12-26T10:46:35.630Z,97802.37
2017-12-26T10:49:03.372Z,97800.77
2017-12-26T10:51:31.510Z,97793.36
2017-12-26T10:53:58.986Z,97792.36
2017-12-26T10:56:26.665Z,97788.50
2017-12-26T10:58:54.139Z,97777.70
2017-12-26T11:01:21.607Z,97781.27
2017-12-26T11:03:49.348Z,97775.23
2017-12-26T11:06:16.836Z,97785.94
2017-12-26T11:08:44.311Z,97784.36
2017-12-26T11:11:12.035Z,97774.78
2017-12-26T11:13:39.517Z,97779.90
2017-12-26T11:16:06.999Z,97773.59
2017-12-26T11:18:35.035Z,97761.30
2017-12-26T11:21:02.506Z,97757.66
2017-12-26T11:23:29.988Z,97752.34
2017-12-26T11:25:58.024Z,97746.59
2017-12-26T11:28:25.491Z,97743.31
2017-12-26T11:30:52.972Z,97738.66
2017-12-26T11:33:21.014Z,97741.95
2017-12-26T11:35:48.748Z,97733.01
2017-12-26T11:38:16.229Z,97736.05
2017-12-26T11:40:44.012Z,97729.84
2017-12-26T11:43:11.487Z,97734.52
2017-12-26T11:45:38.955Z,97727.81
2017-12-26T11:48:06.697Z,97721.03
2017-12-26T11:50:34.167Z,97720.39
2017-12-26T11:53:02.922Z,97710.90
2017-12-26T11:55:30.919Z,97718.45
2017-12-26T11:57:58.391Z,97720.22
2017-12-26T12:00:25.868Z,97711.73
2017-12-26T12:02:53.914Z,97714.93
2017-12-26T12:05:21.382Z,97716.92
2017-12-26T12:07:49.104Z,97702.52
2017-12-26T12:10:17.217Z,97698.81
2017-12-26T12:12:44.681Z,97692.28
2017-12-26T12:15:12.153Z,97684.99
2017-12-26T12:17:39.902Z,97684.64
2017-12-26T12:20:07.382Z,97686.59
2017-12-26T12:22:34.858Z,97687.95
2017-12-26T12:25:02.937Z,97687.74
2017-12-26T12:27:30.407Z,97677.70
2017-12-26T12:29:57.886Z,97683.87
2017-12-26T12:32:25.603Z,97685.22
2017-12-26T12:34:53.082Z,97677.35
2017-12-26T12:37:20.557Z,97673.47
2017-12-26T12:39:48.584Z,97672.91
2017-12-26T12:42:16.057Z,97664.56
2017-12-26T12:44:43.532Z,97663.77
2017-12-26T12:47:11.262Z,97664.77
2017-12-26T12:49:38.743Z,97667.72
2017-12-26T12:52:06.210Z,97667.38
2017-12-26T12:54:34.266Z,97660.72
2017-12-26T12:57:01.739Z,97655.06
2017-12-26T12:59:29.207Z,97652.72
2017-12-26T13:01:56.806Z,97654.33
2017-12-26T13:04:24.279Z,97648.03
2017-12-26T13:06:51.745Z,97646.73
2017-12-26T13:09:19.638Z,97640.25
2017-12-26T13:11:47.290Z,97641.50
2017-12-26T13:14:14.761Z,97645.97
2017-12-26T13:16:42.933Z,97647.16
2017-12-26T13:19:10.407Z,97644.27
2017-12-26T13:21:37.883Z,97634.59
2017-12-26T13:24:05.934Z,97632.83
2017-12-26T13:26:33.408Z,97632.01
2017-12-26T13:29:00.891Z,97626.48
2017-12-26T13:31:28.601Z,97624.31
2017-12-26T13:33:56.199Z,97625.02
2017-12-26T13:36:23.672Z,97630.53
2017-12-26T13:45:34.978Z,97616.80
2017-12-26T13:48:02.437Z,97608.70
2017-12-26T13:50:29.893Z,97604.94
2017-12-26T13:52:57.652Z,97608.64
2017-12-26T13:55:27.342Z,97612.69
2017-12-26T13:57:54.802Z,97609.02
2017-12-26T14:00:22.397Z,97607.75
2017-12-26T14:02:49.857Z,97605.69
2017-12-26T14:05:17.318Z,97606.96
2017-12-26T14:07:45.183Z,97608.98
2017-12-26T14:10:12.656Z,97609.48
2017-12-26T14:12:40.113Z,97613.75
2017-12-26T14:15:07.715Z,97606.91
2017-12-26T14:17:35.172Z,97602.52
2017-12-26T14:20:02.633Z,97606.59
2017-12-26T14:22:30.553Z,97612.31
2017-12-26T14:24:58.016Z,97609.22
2017-12-26T14:27:25.484Z,97607.91
2017-12-26T14:29:53.232Z,97599.41
2017-12-26T14:32:20.695Z,97603.79
2017-12-26T14:34:48.167Z,97596.44
2017-12-26T14:37:16.553Z,97597.91
2017-12-26T14:39:44.014Z,97599.10
2017-12-26T14:42:11.507Z,97588.63
2017-12-26T14:44:39.233Z,97586.70
2017-12-26T14:47:06.692Z,97586.34
2017-12-26T14:49:34.149Z,97588.06
2017-12-26T14:52:02.217Z,97592.86
2017-12-26T14:54:29.693Z,97589.67
2017-12-26T14:56:57.710Z,97583.84
2017-12-26T14:59:25.583Z,97587.05
2017-12-26T15:01:53.013Z,97585.14
2017-12-26T15:04:20.488Z,97591.42
2017-12-26T15:06:48.383Z,97585.63
2017-12-26T15:09:15.847Z,97597.45
2017-12-26T15:11:43.320Z,97593.05
2017-12-26T15:14:11.211Z,97601.84
2017-12-26T15:16:38.680Z,97601.75
2017-12-26T15:19:06.136Z,97615.21
2017-12-26T15:21:33.889Z,97613.12
2017-12-26T15:24:01.347Z,97614.89
2017-12-26T15:26:28.814Z,97614.72
2017-12-26T15:28:56.536Z,97630.97
2017-12-26T15:31:23.990Z,97647.94
2017-12-26T15:33:51.452Z,97655.08
2017-12-26T15:36:19.572Z,97655.14
2017-12-26T15:38:47.088Z,97644.09
2017-12-26T15:41:14.517Z,97641.19
2017-12-26T15:43:42.265Z,97651.61
2017-12-26T15:46:09.737Z,97659.09
2017-12-26T15:48:37.202Z,97676.17
2017-12-26T15:51:04.925Z,97687.11
2017-12-26T15:53:32.381Z,97692.19
2017-12-26T15:55:59.841Z,97694.02
2017-12-26T15:58:29.173Z,97685.17
2017-12-26T16:00:56.636Z,97697.63
2017-12-26T16:03:24.378Z,97697.38
2017-12-26T16:05:52.756Z,97687.12
2017-12-26T16:08:20.227Z,97671.20
2017-12-26T16:10:47.689Z,97682.83
2017-12-26T16:13:15.470Z,97705.81
2017-12-26T16:15:42.940Z,97698.09
2017-12-26T16:18:10.431Z,97694.11
2017-12-26T16:20:38.140Z,97710.48
2017-12-26T16:23:06.798Z,97697.63
2017-12-26T16:25:34.257Z,97687.86
2017-12-26T16:28:02.214Z,97705.52
2017-12-26T16:30:29.680Z,97702.59
2017-12-26T16:32:57.145Z,97697.40
2017-12-26T16:35:25.581Z,97685.03
2017-12-26T16:37:53.084Z,97702.95
2017-12-26T16:40:20.550Z,97691.84
2017-12-26T16:42:48.367Z,97694.50
2017-12-26T16:45:15.910Z,97702.94
2017-12-26T16:47:43.401Z,97699.15
2017-12-26T16:50:11.045Z,97702.11
2017-12-26T16:52:38.513Z,97700.41
2017-12-26T16:55:05.987Z,97700.39
2017-12-26T16:57:34.053Z,97698.67
2017-12-26T17:00:02.526Z,97704.63
2017-12-26T17:02:30.038Z,97702.28
2017-12-26T17:04:57.841Z,97705.47
2017-12-26T17:07:25.318Z,97699.73
2017-12-26T17:09:52.772Z,97696.63
2017-12-26T17:12:20.695Z,97709.11
2017-12-26T17:14:48.157Z,97699.67
2017-12-26T17:17:15.662Z,97695.03
2017-12-26T17:19:43.339Z,97698.30
2017-12-26T17:22:10.794Z,97709.64
2017-12-26T17:24:38.257Z,97711.44
2017-12-26T17:27:06.030Z,97718.08
2017-12-26T17:29:33.491Z,97710.93
2017-12-26T17:32:00.970Z,97706.90
2017-12-26T17:34:28.709Z,97706.73
2017-12-26T17:36:56.165Z,97715.34
2017-12-26T17:39:23.626Z,97720.48
2017-12-26T17:41:51.424Z,97724.59
2017-12-26T17:44:18.882Z,97725.51
2017-12-26T17:46:46.345Z,97721.67
2017-12-26T17:49:14.394Z,97720.53
2017-12-26T17:51:41.854Z,97718.00
2017-12-26T17:54:09.321Z,97711.12
2017-12-26T17:56:37.081Z,97706.39
2017-12-26T17:59:04.545Z,97699.98
2017-12-26T18:01:32.391Z,97689.06
2017-12-26T18:04:00.379Z,97687.03
2017-12-26T18:06:27.861Z,97682.84
2017-12-26T18:08:55.321Z,97684.77
2017-12-26T18:11:23.074Z,97679.22
2017-12-26T18:13:50.537Z,97678.40
2017-12-26T18:16:17.994Z,97669.57
2017-12-26T18:18:45.970Z,97682.70
2017-12-26T18:21:13.440Z,97672.08
2017-12-26T18:23:40.909Z,97667.73
2017-12-26T18:26:08.749Z,97668.70
2017-12-26T18:31:09.368Z,97665.23
2017-12-26T18:33:36.815Z,97663.42
2017-12-26T18:36:04.286Z,97660.37
2017-12-26T18:38:32.190Z,97654.32
2017-12-26T18:40:59.661Z,97653.58
2017-12-26T18:43:27.121Z,97650.59
2017-12-26T18:45:54.874Z,97650.73
2017-12-26T18:48:22.324Z,97649.13
2017-12-26T18:50:49.820Z,97650.62
2017-12-26T18:53:17.569Z,97640.71
2017-12-26T18:55:45.036Z,97629.12
2017-12-26T18:58:12.498Z,97633.20
2017-12-26T19:00:40.257Z,97628.11
2017-12-26T19:03:08.100Z,97625.12
2017-12-26T19:05:35.560Z,97622.78
2017-12-26T19:08:03.550Z,97615.84
2017-12-26T19:10:31.042Z,97616.81
2017-12-26T19:12:58.541Z,97619.45
2017-12-26T19:15:26.541Z,97623.27
2017-12-26T19:17:54.018Z,97616.22
2017-12-26T19:20:21.489Z,97612.36
2017-12-26T19:22:49.545Z,97617.02
2017-12-26T19:25:17.028Z,97606.72
2017-12-26T19:27:44.489Z,97610.38
2017-12-26T19:30:12.224Z,97605.66
2017-12-26T19:32:39.699Z,97595.00
2017-12-26T19:35:07.160Z,97591.17
2017-12-26T19:37:34.782Z,97587.73
2017-12-26T19:40:02.248Z,97581.86
2017-12-26T19:42:29.717Z,97583.25
2017-12-26T19:44:57.648Z,97575.30
2017-12-26T19:47:25.137Z,97574.23
2017-12-26T19:49:52.607Z,97578.77
2017-12-26T19:52:20.280Z,97575.56
2017-12-26T19:54:47.740Z,97571.78
2017-12-26T19:57:15.242Z,97571.67
2017-12-26T19:59:43.024Z,97558.73
2017-12-26T20:02:10.493Z,97550.84
2017-12-26T20:04:38.740Z,97559.52
2017-12-26T20:07:06.897Z,97556.06
2017-12-26T20:09:34.966Z,97556.11
2017-12-26T20:12:02.807Z,97544.13
2017-12-26T20:14:31.123Z,97547.50
2017-12-26T20:16:58.600Z,97548.40
2017-12-26T20:19:26.659Z,97543.94
2017-12-26T20:21:54.454Z,97546.60
2017-12-26T20:24:22.504Z,97544.75
2017-12-26T20:26:50.426Z,97543.94
2017-12-26T20:29:21.002Z,97542.02
2017-12-26T20:31:49.180Z,97542.45
2017-12-26T20:34:17.293Z,97532.43
2017-12-26T20:36:46.611Z,97538.48
2017-12-26T20:39:14.837Z,97535.67
2017-12-26T20:41:42.335Z,97526.38
2017-12-26T20:44:10.762Z,97517.70
2017-12-26T20:46:38.731Z,97503.94
2017-12-26T20:49:06.326Z,97506.84
2017-12-26T20:51:34.740Z,97512.94
2017-12-26T20:54:02.680Z,97512.82
2017-12-26T20:56:30.730Z,97503.42
2017-12-26T20:58:59.008Z,97494.10
2017-12-26T21:01:26.769Z,97495.01
2017-12-26T21:03:54.962Z,97495.13
2017-12-26T21:06:23.479Z,97488.09
2017-12-26T21:08:50.999Z,97483.40
2017-12-26T21:11:18.722Z,97468.10
2017-12-26T21:13:46.893Z,97461.55
2017-12-26T21:16:14.558Z,97450.03
2017-12-26T21:18:42.449Z,97445.67
2017-12-26T21:21:10.358Z,97439.50
2017-12-26T21:23:38.433Z,97433.13
2017-12-26T21:26:06.510Z,97432.86
2017-12-26T21:28:34.914Z,97428.98
2017-12-26T21:31:02.695Z,97434.58
2017-12-26T21:33:30.638Z,97417.44
2017-12-26T21:35:59.459Z,97413.56
2017-12-26T21:38:26.937Z,97408.09
2017-12-26T21:40:54.696Z,97398.88
2017-12-26T21:43:23.328Z,97393.95
2017-12-26T21:45:50.823Z,97393.14
2017-12-26T21:48:18.283Z,97397.57
2017-12-26T21:50:46.031Z,97389.26
2017-12-26T21:53:13.669Z,97383.55
2017-12-26T21:55:41.127Z,97373.84
2017-12-26T21:58:09.941Z,97369.52
2017-12-26T22:00:37.405Z,97358.95
2017-12-26T22:03:04.862Z,97351.05
2017-12-26T22:05:32.626Z,97351.88
2017-12-26T22:08:00.781Z,97340.31
2017-12-26T22:10:28.244Z,97338.06
2017-12-26T22:12:55.977Z,97330.83
2017-12-26T22:15:23.448Z,97327.08
2017-12-26T22:17:50.921Z,97324.73
2017-12-26T22:20:18.700Z,97324.45
2017-12-26T22:22:46.170Z,97321.75
2017-12-26T22:25:14.496Z,97315.11
2017-12-26T22:27:42.529Z,97323.64
2017-12-26T22:30:10.008Z,97312.88
2017-12-26T22:32:37.476Z,97302.30
2017-12-26T22:35:05.226Z,97297.92
2017-12-26T22:37:32.696Z,97304.09
2017-12-26T22:40:00.152Z,97287.50
2017-12-26T22:42:27.910Z,97283.12
2017-12-26T22:44:55.379Z,97271.95
2017-12-26T22:47:22.845Z,97266.30
2017-12-26T22:49:50.909Z,97270.73
2017-12-26T22:52:18.384Z,97261.14
2017-12-26T22:54:45.841Z,97251.94
2017-12-26T22:57:13.600Z,97235.58
2017-12-26T22:59:41.062Z,97226.41
2017-12-26T23:02:08.527Z,97212.39
2017-12-26T23:04:36.573Z,97188.06
2017-12-26T23:07:04.037Z,97182.52
2017-12-26T23:09:31.877Z,97182.73
2017-12-26T23:11:59.760Z,97181.64
2017-12-26T23:14:32.765Z,97178.97
2017-12-26T23:17:06.185Z,97171.11
2017-12-26T23:19:39.196Z,97170.89
2017-12-26T23:22:06.977Z,97182.48
2017-12-26T23:27:44.048Z,97201.30
2017-12-26T23:30:17.161Z,97204.98
2017-12-26T23:32:50.589Z,97195.39
2017-12-26T23:35:23.569Z,97175.16
2017-12-26T23:37:56.822Z,97170.12
2017-12-26T23:40:29.909Z,97157.00
2017-12-26T23:43:03.356Z,97129.36
2017-12-26T23:45:36.436Z,97126.52
2017-12-26T23:48:09.999Z,97114.75
2017-12-26T23:50:43.064Z,97099.09
2017-12-26T23:53:16.533Z,97093.17
2017-12-26T23:55:49.642Z,97087.60
2017-12-26T23:58:23.190Z,97085.38
